Time;durP1;ratioP1;P1;durP2;ratioP2;P2;SDS_P1;SDS_P2;PMS_P1;PMS_P2;Temp;Humidity;BMP_temperature;BMP_pressure;BME280_temperature;BME280_humidity;BME280_pressure;Samples;Min_cycle;Max_cycle;Signal;HPM_P1;HPM_P2
2021/07/24 00:02:05;;;;;;;29.65;17.08;;;17.30;99.90;;;;;;4791620;29;20043;-87
2021/07/24 00:04:32;;;;;;;30.00;16.60;;;17.30;99.90;;;;;;4807627;29;20054;-87
2021/07/24 00:07:00;;;;;;;31.52;16.80;;;17.40;99.90;;;;;;4814038;29;20055;-87
2021/07/24 00:09:30;;;;;;;36.00;15.57;;;17.40;99.90;;;;;;4804375;29;20390;-87
2021/07/24 00:11:57;;;;;;;25.67;14.50;;;17.40;99.90;;;;;;4805325;29;20058;-87
2021/07/24 00:14:24;;;;;;;29.70;14.40;;;17.50;99.90;;;;;;4804419;29;20059;-87
2021/07/24 00:16:52;;;;;;;25.88;15.52;;;17.50;99.90;;;;;;4804001;29;20109;-87
2021/07/24 00:19:19;;;;;;;32.88;15.93;;;17.50;99.90;;;;;;4804763;29;20062;-87
2021/07/24 00:21:46;;;;;;;25.42;14.48;;;17.60;99.90;;;;;;4818987;29;20055;-87
2021/07/24 00:24:13;;;;;;;25.85;14.70;;;17.60;99.90;;;;;;4796726;29;20077;-87
2021/07/24 00:26:40;;;;;;;31.15;15.65;;;17.60;99.90;;;;;;4791933;29;20058;-87
2021/07/24 00:29:07;;;;;;;21.23;12.70;;;17.70;99.90;;;;;;4803621;29;20047;-87
2021/07/24 00:31:35;;;;;;;27.20;14.63;;;17.60;99.90;;;;;;4789530;29;20051;-87
2021/07/24 00:34:02;;;;;;;27.10;10.98;;;17.60;99.90;;;;;;4800274;29;20562;-87
2021/07/24 00:36:30;;;;;;;22.63;9.95;;;17.70;99.90;;;;;;4804461;29;20470;-87
2021/07/24 00:39:03;;;;;;;19.42;8.32;;;17.60;99.90;;;;;;4791817;29;20054;-87
2021/07/24 00:41:43;;;;;;;25.02;8.85;;;17.60;99.90;;;;;;4790491;29;20051;-87
2021/07/24 00:44:13;;;;;;;18.95;8.25;;;17.60;99.90;;;;;;4820150;29;20043;-88
2021/07/24 00:46:41;;;;;;;27.95;9.50;;;17.60;99.90;;;;;;4804616;29;20130;-88
2021/07/24 00:49:11;;;;;;;25.35;9.13;;;17.60;99.90;;;;;;4790987;29;20528;-86
2021/07/24 00:51:44;;;;;;;21.83;7.93;;;17.60;99.90;;;;;;4806294;29;20050;-87
2021/07/24 00:54:11;;;;;;;23.10;8.35;;;17.60;99.90;;;;;;4813857;29;20050;-87
2021/07/24 00:56:39;;;;;;;22.15;8.57;;;17.60;99.90;;;;;;4805173;29;20053;-87
2021/07/24 00:59:07;;;;;;;18.70;8.10;;;17.60;99.90;;;;;;4804298;29;20057;-87
2021/07/24 01:01:36;;;;;;;20.58;7.78;;;17.60;99.90;;;;;;4789680;29;20164;-87
2021/07/24 01:04:04;;;;;;;14.05;7.80;;;17.60;99.90;;;;;;4807174;29;20067;-86
2021/07/24 01:06:31;;;;;;;17.13;7.25;;;17.60;99.90;;;;;;4814535;29;20042;-87
2021/07/24 01:08:58;;;;;;;17.73;7.80;;;17.60;99.90;;;;;;4804918;29;20047;-87
2021/07/24 01:11:25;;;;;;;15.55;7.00;;;17.60;99.90;;;;;;4804958;29;20062;-87
2021/07/24 01:13:53;;;;;;;21.58;7.55;;;17.60;99.90;;;;;;4801771;29;20513;-87
2021/07/24 01:16:20;;;;;;;19.58;6.80;;;17.60;99.90;;;;;;4812415;29;20062;-87
2021/07/24 01:18:47;;;;;;;18.58;6.93;;;17.50;99.90;;;;;;4806075;29;20107;-87
2021/07/24 01:21:26;;;;;;;18.83;6.80;;;17.50;99.90;;;;;;4803654;29;20066;-87
2021/07/24 01:23:53;;;;;;;14.75;6.70;;;17.60;99.90;;;;;;4804095;29;20057;-87
2021/07/24 01:26:28;;;;;;;17.05;6.57;;;17.50;99.90;;;;;;4813127;29;20063;-87
2021/07/24 01:28:56;;;;;;;14.38;6.75;;;17.50;99.90;;;;;;4790987;29;20054;-87
2021/07/24 01:31:24;;;;;;;18.45;6.53;;;17.50;99.90;;;;;;4805724;29;20137;-87
2021/07/24 01:33:51;;;;;;;13.27;5.60;;;17.50;99.90;;;;;;4805702;29;20062;-88
2021/07/24 01:36:18;;;;;;;14.52;5.90;;;17.50;99.90;;;;;;4805121;29;20057;-88
2021/07/24 01:38:45;;;;;;;13.20;5.72;;;17.50;99.90;;;;;;4806493;29;20452;-87
2021/07/24 01:41:14;;;;;;;14.70;5.75;;;17.60;99.90;;;;;;4807857;29;20050;-88
2021/07/24 01:43:41;;;;;;;13.57;5.53;;;17.60;99.90;;;;;;4803917;29;20074;-87
2021/07/24 01:46:08;;;;;;;16.85;5.88;;;17.60;99.90;;;;;;4805664;29;20042;-87
2021/07/24 01:53:57;;;;;;;7.85;4.55;;;17.50;99.90;;;;;;4803727;29;20486;-87
2021/07/24 01:56:28;;;;;;;13.07;4.60;;;17.50;99.90;;;;;;4804200;29;20490;-88
2021/07/24 01:58:55;;;;;;;15.93;4.97;;;17.50;99.90;;;;;;4804000;29;20051;-87
2021/07/24 02:01:24;;;;;;;10.23;4.15;;;17.40;99.90;;;;;;4788338;29;20422;-87
2021/07/24 02:03:56;;;;;;;14.75;4.75;;;17.40;99.90;;;;;;4805144;29;20517;-88
2021/07/24 02:06:24;;;;;;;15.93;4.55;;;17.40;99.90;;;;;;4789256;29;20115;-87
2021/07/24 02:08:52;;;;;;;12.20;4.25;;;17.40;99.90;;;;;;4803337;29;20058;-87
2021/07/24 02:11:21;;;;;;;13.30;4.50;;;17.40;99.90;;;;;;4802817;29;20050;-87
2021/07/24 02:13:49;;;;;;;13.48;4.80;;;17.40;99.90;;;;;;4803601;29;20581;-87
2021/07/24 02:16:16;;;;;;;13.43;4.72;;;17.30;99.90;;;;;;4788574;29;20059;-88
2021/07/24 02:18:44;;;;;;;12.25;4.80;;;17.30;99.90;;;;;;4805151;29;20051;-87
2021/07/24 02:21:13;;;;;;;11.15;5.32;;;17.30;99.90;;;;;;4802904;29;20052;-87
2021/07/24 02:23:40;;;;;;;12.95;4.70;;;17.20;99.90;;;;;;4803564;29;20300;-87
2021/07/24 02:26:12;;;;;;;12.52;4.65;;;17.20;99.90;;;;;;4802829;29;20047;-87
2021/07/24 02:28:39;;;;;;;12.10;5.20;;;17.20;99.90;;;;;;4789300;29;20492;-87
2021/07/24 02:31:06;;;;;;;10.57;4.60;;;17.10;99.90;;;;;;4804919;29;20074;-87
2021/07/24 02:33:33;;;;;;;12.93;4.93;;;17.10;99.90;;;;;;4804518;29;20070;-88
2021/07/24 02:36:00;;;;;;;10.65;5.03;;;17.10;99.90;;;;;;4803822;29;20051;-88
2021/07/24 02:38:28;;;;;;;11.88;5.20;;;17.10;99.90;;;;;;4802339;29;20486;-87
2021/07/24 02:40:55;;;;;;;17.25;4.80;;;17.10;99.90;;;;;;4804576;29;20050;-88
2021/07/24 02:43:22;;;;;;;15.95;5.50;;;17.10;99.90;;;;;;4803130;29;20065;-87
2021/07/24 02:45:50;;;;;;;18.13;5.65;;;17.10;99.90;;;;;;4789725;29;20146;-88
2021/07/24 02:48:17;;;;;;;13.27;5.63;;;17.10;99.90;;;;;;4802136;29;20046;-88
2021/07/24 02:50:44;;;;;;;13.75;5.50;;;17.10;99.90;;;;;;4789596;29;20050;-88
2021/07/24 02:53:13;;;;;;;12.88;6.15;;;17.10;99.90;;;;;;4804092;29;20137;-87
2021/07/24 02:55:42;;;;;;;13.90;5.32;;;17.00;99.90;;;;;;4805919;29;20042;-87
2021/07/24 02:58:10;;;;;;;16.02;6.28;;;17.00;99.90;;;;;;4797852;29;20058;-87
2021/07/24 03:00:37;;;;;;;12.50;6.07;;;17.00;99.90;;;;;;4804560;29;20121;-87
2021/07/24 03:03:05;;;;;;;16.33;6.40;;;17.00;99.90;;;;;;4785639;29;20055;-86
2021/07/24 03:05:32;;;;;;;13.10;6.22;;;17.00;99.90;;;;;;4804412;29;20066;-87
2021/07/24 03:07:59;;;;;;;19.45;6.95;;;17.00;99.90;;;;;;4803463;29;20059;-87
2021/07/24 03:10:27;;;;;;;17.02;7.82;;;17.00;99.90;;;;;;4801787;29;20043;-87
2021/07/24 03:12:54;;;;;;;19.42;8.05;;;17.00;99.90;;;;;;4809278;29;20129;-87
2021/07/24 03:15:21;;;;;;;19.92;7.85;;;17.10;99.90;;;;;;4791209;29;20061;-87
2021/07/24 03:17:48;;;;;;;15.55;7.63;;;17.10;99.90;;;;;;4802424;29;20043;-87
2021/07/24 03:20:15;;;;;;;16.85;8.00;;;17.10;99.90;;;;;;4803589;29;20389;-87
2021/07/24 03:22:42;;;;;;;17.50;8.07;;;17.10;99.90;;;;;;4802929;29;20137;-87
2021/07/24 03:25:09;;;;;;;14.52;7.05;;;17.10;99.90;;;;;;4804592;29;20051;-87
2021/07/24 03:27:36;;;;;;;12.00;7.00;;;17.10;99.90;;;;;;4803747;29;20051;-87
2021/07/24 03:30:04;;;;;;;13.85;7.63;;;17.10;99.90;;;;;;4802335;29;20051;-87
2021/07/24 03:32:32;;;;;;;18.92;7.95;;;17.10;99.90;;;;;;4801818;29;20133;-87
2021/07/24 03:34:59;;;;;;;12.68;7.78;;;17.10;99.90;;;;;;4803330;29;20058;-87
2021/07/24 03:37:27;;;;;;;18.15;8.20;;;17.10;99.90;;;;;;4803320;29;20047;-87
2021/07/24 03:39:54;;;;;;;14.05;7.50;;;17.00;99.90;;;;;;4817891;29;20059;-87
2021/07/24 03:42:21;;;;;;;14.02;7.82;;;17.10;99.90;;;;;;4801356;29;20062;-87
2021/07/24 03:44:48;;;;;;;14.20;8.25;;;17.00;99.90;;;;;;4802435;29;20055;-87
2021/07/24 03:47:15;;;;;;;19.83;8.40;;;17.10;99.90;;;;;;4803171;29;20058;-86
2021/07/24 03:49:42;;;;;;;18.08;8.85;;;17.00;99.90;;;;;;4802308;29;20067;-87
2021/07/24 03:52:09;;;;;;;20.00;8.43;;;17.00;99.90;;;;;;4803462;29;20398;-87
2021/07/24 03:54:36;;;;;;;20.33;8.60;;;17.00;99.90;;;;;;4818784;29;20046;-87
2021/07/24 03:57:03;;;;;;;13.63;8.00;;;17.00;99.90;;;;;;4811898;29;20059;-87
2021/07/24 03:59:31;;;;;;;14.27;8.43;;;17.00;99.90;;;;;;4800605;29;20063;-87
2021/07/24 04:01:59;;;;;;;14.18;7.38;;;17.00;99.90;;;;;;4788833;29;20065;-87
2021/07/24 04:04:26;;;;;;;15.95;7.65;;;17.00;99.90;;;;;;4803128;29;20191;-87
2021/07/24 04:06:55;;;;;;;16.08;7.70;;;17.00;99.90;;;;;;4805014;29;20051;-87
2021/07/24 04:09:22;;;;;;;;;;;17.00;99.90;;;;;;4791980;29;20055;-87
2021/07/24 04:11:49;;;;;;;14.40;7.60;;;17.00;99.90;;;;;;4793549;29;19926;-87
2021/07/24 04:14:17;;;;;;;18.08;8.15;;;16.90;99.90;;;;;;4769978;29;20066;-87
2021/07/24 04:16:44;;;;;;;16.80;7.90;;;16.90;99.90;;;;;;4784178;29;20486;-87
2021/07/24 04:19:11;;;;;;;16.73;8.13;;;17.00;99.90;;;;;;4785081;29;20556;-87
2021/07/24 04:21:38;;;;;;;17.77;8.88;;;16.90;99.90;;;;;;4784979;29;20475;-86
2021/07/24 04:24:05;;;;;;;17.80;8.18;;;16.90;99.90;;;;;;4783385;29;20093;-86
2021/07/24 04:26:32;;;;;;;13.32;8.38;;;17.00;99.90;;;;;;4788325;29;20090;-86
2021/07/24 04:28:59;;;;;;;13.45;8.18;;;16.90;99.90;;;;;;4787400;29;20395;-85
2021/07/24 04:31:26;;;;;;;13.90;8.50;;;16.90;99.90;;;;;;4788131;29;20047;-85
2021/07/24 04:33:53;;;;;;;10.90;7.38;;;16.90;99.90;;;;;;4790398;29;20108;-85
2021/07/24 04:36:20;;;;;;;9.30;7.03;;;16.90;99.90;;;;;;4786681;29;20054;-85
2021/07/24 04:38:47;;;;;;;11.45;7.63;;;16.90;99.90;;;;;;4773825;29;20055;-86
2021/07/24 04:41:18;;;;;;;12.05;7.28;;;16.90;99.90;;;;;;4773244;29;20142;-85
2021/07/24 04:43:45;;;;;;;11.82;7.30;;;16.90;99.90;;;;;;4787108;29;20059;-85
2021/07/24 04:46:13;;;;;;;14.45;7.55;;;16.80;99.90;;;;;;4789342;29;20055;-85
2021/07/24 04:48:40;;;;;;;12.23;7.28;;;16.80;99.90;;;;;;4788281;29;20047;-85
2021/07/24 04:51:07;;;;;;;12.95;7.75;;;16.90;99.90;;;;;;4786202;29;20055;-85
2021/07/24 04:53:35;;;;;;;9.38;7.72;;;16.80;99.90;;;;;;4787091;29;20527;-85
2021/07/24 04:56:03;;;;;;;14.18;7.68;;;16.90;99.90;;;;;;4786960;29;20058;-85
2021/07/24 04:58:31;;;;;;;10.80;7.28;;;16.80;99.90;;;;;;4787751;29;20402;-85
2021/07/24 05:00:58;;;;;;;12.55;7.22;;;16.80;99.90;;;;;;4803685;29;20055;-85
2021/07/24 05:03:25;;;;;;;11.68;7.47;;;16.80;99.90;;;;;;4771450;29;20367;-85
2021/07/24 05:05:53;;;;;;;11.27;7.47;;;16.80;99.90;;;;;;4785415;29;20406;-85
2021/07/24 05:08:23;;;;;;;14.13;7.00;;;16.80;99.90;;;;;;4784971;29;20051;-85
2021/07/24 05:10:50;;;;;;;16.42;8.13;;;16.80;99.90;;;;;;4786863;29;20793;-86
2021/07/24 05:13:17;;;;;;;18.52;8.90;;;16.70;99.90;;;;;;4787933;29;20055;-86
2021/07/24 05:15:44;;;;;;;16.85;8.27;;;16.80;99.90;;;;;;4797285;29;20172;-86
2021/07/24 05:18:12;;;;;;;14.90;8.48;;;16.80;99.90;;;;;;4785883;29;20055;-85
2021/07/24 05:20:39;;;;;;;14.98;8.43;;;16.80;99.90;;;;;;4785321;29;20108;-85
2021/07/24 05:23:06;;;;;;;18.92;8.80;;;16.80;99.90;;;;;;4785927;29;20050;-86
2021/07/24 05:25:34;;;;;;;13.10;7.47;;;16.80;99.90;;;;;;4787068;29;20055;-86
2021/07/24 05:28:01;;;;;;;18.35;7.93;;;16.70;99.90;;;;;;4773608;29;20059;-86
2021/07/24 05:30:28;;;;;;;17.77;8.10;;;16.80;99.90;;;;;;4785378;29;20051;-86
2021/07/24 05:32:55;;;;;;;17.10;7.93;;;16.70;99.90;;;;;;4786036;29;20108;-85
2021/07/24 05:35:22;;;;;;;13.00;7.93;;;16.70;99.90;;;;;;4785543;29;20058;-85
2021/07/24 05:37:49;;;;;;;20.80;8.90;;;16.70;99.90;;;;;;4786279;29;20051;-85
2021/07/24 05:40:16;;;;;;;15.63;8.98;;;16.80;99.90;;;;;;4787765;29;20059;-85
2021/07/24 05:42:43;;;;;;;16.48;9.65;;;16.70;99.90;;;;;;4786753;29;20044;-86
2021/07/24 05:45:11;;;;;;;24.55;9.38;;;16.80;99.90;;;;;;4785622;29;20486;-85
2021/07/24 05:47:37;;;;;;;23.33;9.35;;;16.80;99.90;;;;;;4785764;29;20047;-85
2021/07/24 05:50:05;;;;;;;16.15;8.82;;;16.80;99.90;;;;;;4784905;29;20055;-85
2021/07/24 05:52:32;;;;;;;17.23;9.65;;;16.80;99.90;;;;;;4783007;29;20063;-85
2021/07/24 05:54:59;;;;;;;23.83;10.50;;;16.80;99.90;;;;;;4785784;29;20060;-85
2021/07/24 05:57:26;;;;;;;22.15;10.15;;;16.80;99.90;;;;;;4794694;29;20109;-85
2021/07/24 05:59:53;;;;;;;17.25;9.93;;;16.80;99.90;;;;;;4781336;29;20070;-85
2021/07/24 06:02:20;;;;;;;21.90;9.60;;;16.80;99.90;;;;;;4785214;29;20048;-86
2021/07/24 06:04:49;;;;;;;16.85;9.27;;;16.80;99.90;;;;;;4793462;29;20055;-87
2021/07/24 06:07:16;;;;;;;21.50;9.02;;;16.80;99.90;;;;;;4776285;29;20054;-88
2021/07/24 06:09:44;;;;;;;22.58;10.18;;;16.80;99.90;;;;;;4792545;29;20043;-87
2021/07/24 06:12:11;;;;;;;22.80;9.10;;;16.70;99.90;;;;;;4812599;29;20046;-88
2021/07/24 06:14:38;;;;;;;17.90;8.48;;;16.70;99.90;;;;;;4798570;29;20047;-87
2021/07/24 06:17:05;;;;;;;20.02;7.97;;;16.70;99.90;;;;;;4793000;29;20061;-88
2021/07/24 06:19:34;;;;;;;21.30;7.70;;;16.70;99.90;;;;;;4812984;29;20055;-88
2021/07/24 06:22:02;;;;;;;14.75;6.60;;;16.70;99.90;;;;;;4810467;29;20444;-88
2021/07/24 06:24:29;;;;;;;23.20;7.53;;;16.60;99.90;;;;;;4792947;29;20488;-87
2021/07/24 06:26:56;;;;;;;15.00;7.28;;;16.70;99.90;;;;;;4797469;29;20051;-88
2021/07/24 06:29:23;;;;;;;18.02;7.82;;;16.60;99.90;;;;;;4794543;29;20050;-88
2021/07/24 06:31:50;;;;;;;23.02;7.97;;;16.60;99.90;;;;;;4810679;29;20127;-87
2021/07/24 06:34:17;;;;;;;20.20;8.00;;;16.60;99.90;;;;;;4815657;29;20055;-87
2021/07/24 06:36:44;;;;;;;22.02;8.15;;;16.60;99.90;;;;;;4800445;29;20059;-87
2021/07/24 06:39:11;;;;;;;23.85;8.55;;;16.60;99.90;;;;;;4786043;29;20501;-87
2021/07/24 06:41:39;;;;;;;23.90;8.43;;;16.70;99.90;;;;;;4798365;29;20055;-86
2021/07/24 06:44:06;;;;;;;26.70;9.30;;;16.70;99.90;;;;;;4795202;29;20042;-87
2021/07/24 06:46:33;;;;;;;30.42;11.00;;;16.60;99.90;;;;;;4800619;29;20050;-87
2021/07/24 06:49:00;;;;;;;48.72;14.98;;;16.70;99.90;;;;;;4791001;29;20145;-87
2021/07/24 06:51:29;;;;;;;55.05;17.50;;;16.70;99.90;;;;;;4798965;29;20486;-87
2021/07/24 06:53:55;;;;;;;70.68;19.77;;;16.60;99.90;;;;;;4800284;29;20058;-87
2021/07/24 06:56:22;;;;;;;75.55;21.00;;;16.60;99.90;;;;;;4797399;29;20059;-87
2021/07/24 06:58:51;;;;;;;71.43;21.27;;;16.60;99.90;;;;;;4790005;29;20391;-87
2021/07/24 07:01:18;;;;;;;74.72;21.98;;;16.60;99.90;;;;;;4792455;29;20288;-87
2021/07/24 07:03:45;;;;;;;68.47;21.63;;;16.60;99.90;;;;;;4797133;29;20058;-87
2021/07/24 07:06:13;;;;;;;68.00;20.80;;;16.60;99.90;;;;;;4775314;29;20061;-87
2021/07/24 07:08:41;;;;;;;48.03;18.10;;;16.60;99.90;;;;;;4791231;29;20655;-87
2021/07/24 07:11:08;;;;;;;64.47;21.50;;;16.50;99.90;;;;;;4783097;29;20405;-88
2021/07/24 07:13:36;;;;;;;61.95;22.08;;;16.40;99.90;;;;;;4780501;29;20069;-87
2021/07/24 07:16:08;;;;;;;69.30;22.45;;;16.40;99.90;;;;;;4761190;30;20062;-87
2021/07/24 07:18:36;;;;;;;63.42;22.85;;;16.50;99.90;;;;;;4772466;29;20051;-88
2021/07/24 07:21:04;;;;;;;61.00;22.50;;;16.50;99.90;;;;;;4767458;29;20490;-88
2021/07/24 07:23:31;;;;;;;60.17;21.95;;;16.50;99.90;;;;;;4785050;29;20104;-87
2021/07/24 07:26:00;;;;;;;61.97;22.98;;;16.50;99.90;;;;;;4781078;29;20389;-87
2021/07/24 07:28:28;;;;;;;65.75;23.48;;;16.60;99.90;;;;;;4778375;29;20100;-88
2021/07/24 07:30:55;;;;;;;66.13;22.52;;;16.60;99.90;;;;;;4787985;29;20108;-87
2021/07/24 07:33:22;;;;;;;63.55;23.40;;;16.60;99.90;;;;;;4782457;29;20051;-88
2021/07/24 07:35:49;;;;;;;60.35;22.42;;;16.70;99.90;;;;;;4783028;29;20061;-88
2021/07/24 07:38:16;;;;;;;60.40;22.23;;;16.60;99.90;;;;;;4776482;29;20061;-87
2021/07/24 07:40:43;;;;;;;51.47;20.35;;;16.60;99.90;;;;;;4768048;29;20066;-88
2021/07/24 07:43:12;;;;;;;53.88;20.65;;;16.60;99.90;;;;;;4775357;29;20499;-87
2021/07/24 07:45:40;;;;;;;46.05;20.45;;;16.60;99.90;;;;;;4764566;29;20052;-87
2021/07/24 07:48:08;;;;;;;45.20;19.70;;;16.60;99.90;;;;;;4760068;29;20454;-87
2021/07/24 07:50:40;;;;;;;46.95;21.10;;;16.60;99.90;;;;;;4778455;29;20051;-87
2021/07/24 07:53:07;;;;;;;51.15;19.40;;;16.60;99.90;;;;;;4780268;29;20051;-87
2021/07/24 07:55:35;;;;;;;48.70;19.98;;;16.60;99.90;;;;;;4787074;29;20051;-88
2021/07/24 07:58:10;;;;;;;47.28;19.38;;;16.60;99.90;;;;;;4782105;29;20056;-87
2021/07/24 08:00:37;;;;;;;46.40;19.65;;;16.60;99.90;;;;;;4793746;29;20064;-88
2021/07/24 08:03:04;;;;;;;52.85;20.13;;;16.50;99.90;;;;;;4779739;29;20064;-87
2021/07/24 08:05:32;;;;;;;56.60;21.70;;;16.50;99.90;;;;;;4798567;29;20048;-88
2021/07/24 08:07:59;;;;;;;58.92;22.25;;;16.50;99.90;;;;;;4765919;29;20059;-88
2021/07/24 08:10:26;;;;;;;50.90;19.45;;;16.60;99.90;;;;;;4785802;29;20062;-88
2021/07/24 08:12:54;;;;;;;50.35;20.00;;;16.50;99.90;;;;;;4772873;29;20071;-88
2021/07/24 08:15:26;;;;;;;51.60;20.55;;;16.50;99.90;;;;;;4762085;29;20482;-90
2021/07/24 08:17:57;;;;;;;42.28;19.95;;;16.40;99.90;;;;;;4792095;29;20119;-86
2021/07/24 08:20:26;;;;;;;52.95;19.55;;;16.40;99.90;;;;;;4769998;29;20441;-88
2021/07/24 08:22:53;;;;;;;52.70;19.05;;;16.50;99.90;;;;;;4779825;29;20057;-88
2021/07/24 08:25:20;;;;;;;44.05;17.20;;;16.50;99.90;;;;;;4782088;29;20059;-87
2021/07/24 08:27:47;;;;;;;44.20;17.35;;;16.50;99.90;;;;;;4786053;29;20051;-88
2021/07/24 08:30:16;;;;;;;43.83;16.88;;;16.60;99.90;;;;;;4782939;29;20219;-87
2021/07/24 08:32:43;;;;;;;43.28;17.15;;;16.60;99.90;;;;;;4782249;29;20134;-88
2021/07/24 08:35:11;;;;;;;40.60;16.05;;;16.60;99.90;;;;;;4790420;29;20047;-87
2021/07/24 08:37:38;;;;;;;39.60;17.63;;;16.70;99.90;;;;;;4769096;29;20055;-88
2021/07/24 08:40:05;;;;;;;34.08;15.35;;;16.70;99.90;;;;;;4796860;29;20116;-88
2021/07/24 08:42:40;;;;;;;39.75;16.30;;;16.80;99.90;;;;;;4782505;29;20059;-87
2021/07/24 08:45:08;;;;;;;42.47;14.20;;;16.80;99.90;;;;;;4783484;29;20055;-87
2021/07/24 08:47:36;;;;;;;37.92;14.73;;;16.90;99.90;;;;;;4783760;29;20078;-88
2021/07/24 08:50:06;;;;;;;31.75;13.88;;;17.00;99.90;;;;;;4768973;29;20084;-87
2021/07/24 08:52:35;;;;;;;28.38;12.50;;;17.00;99.90;;;;;;4781946;29;20052;-87
2021/07/24 08:55:07;;;;;;;30.35;13.27;;;17.10;99.90;;;;;;4784706;29;20047;-88
2021/07/24 08:57:40;;;;;;;39.10;13.10;;;17.20;99.90;;;;;;4769054;29;20127;-88
2021/07/24 09:00:11;;;;;;;36.05;13.15;;;17.20;99.90;;;;;;4783269;29;20051;-88
2021/07/24 09:02:41;;;;;;;37.97;12.57;;;17.20;99.90;;;;;;4780411;29;20058;-88
2021/07/24 09:05:11;;;;;;;41.97;13.60;;;17.20;99.90;;;;;;4780416;29;20047;-87
2021/07/24 09:07:44;;;;;;;35.75;13.55;;;17.10;99.90;;;;;;4766886;29;20418;-87
2021/07/24 09:10:12;;;;;;;34.58;13.80;;;17.20;99.90;;;;;;4790240;29;20486;-87
2021/07/24 09:12:41;;;;;;;39.77;15.53;;;17.20;99.90;;;;;;4781891;29;20054;-88
2021/07/24 09:15:10;;;;;;;41.40;13.43;;;17.10;99.90;;;;;;4794114;29;20051;-87
2021/07/24 09:17:37;;;;;;;;;;;17.10;99.90;;;;;;4782720;29;20387;-88
2021/07/24 09:20:05;;;;;;;32.20;11.50;;;17.10;99.90;;;;;;4795623;29;19929;-87
2021/07/24 09:22:35;;;;;;;32.03;11.90;;;17.10;99.90;;;;;;4770471;29;20087;-87
2021/07/24 09:25:02;;;;;;;33.20;12.85;;;17.10;99.90;;;;;;4767578;29;20510;-87
2021/07/24 09:27:29;;;;;;;27.42;11.05;;;17.20;99.90;;;;;;4803224;29;20119;-88
2021/07/24 09:29:56;;;;;;;31.45;10.55;;;17.30;99.90;;;;;;4786462;29;20598;-88
2021/07/24 09:32:25;;;;;;;31.50;10.68;;;17.40;99.90;;;;;;4771838;29;20055;-87
2021/07/24 09:34:52;;;;;;;26.08;10.05;;;17.50;99.90;;;;;;4782934;29;20077;-87
2021/07/24 09:37:27;;;;;;;21.10;8.18;;;17.60;99.90;;;;;;4781440;29;20066;-87
2021/07/24 09:40:22;;;;;;;18.63;8.45;;;17.70;99.90;;;;;;4780424;29;20054;-88
2021/07/24 09:42:49;;;;;;;17.92;8.18;;;17.80;99.90;;;;;;4775162;29;20097;-88
2021/07/24 09:45:16;;;;;;;23.95;8.65;;;18.00;99.90;;;;;;4795969;29;20055;-88
2021/07/24 09:47:43;;;;;;;17.80;7.57;;;18.10;99.90;;;;;;4798994;29;20051;-88
2021/07/24 09:50:17;;;;;;;17.60;8.02;;;18.10;99.90;;;;;;4779130;29;20056;-88
2021/07/24 09:52:53;;;;;;;17.75;7.65;;;18.20;99.90;;;;;;4764781;29;20063;-88
2021/07/24 09:55:25;;;;;;;18.83;7.93;;;18.20;99.90;;;;;;4796629;29;20059;-87
2021/07/24 09:57:57;;;;;;;23.75;7.65;;;18.30;99.90;;;;;;4766548;29;20055;-88
2021/07/24 10:00:32;;;;;;;12.57;6.65;;;18.30;99.90;;;;;;4781705;29;20075;-88
2021/07/24 10:03:06;;;;;;;10.35;6.10;;;18.30;99.90;;;;;;4784206;29;20043;-89
2021/07/24 10:05:35;;;;;;;10.40;4.85;;;18.30;99.90;;;;;;4770477;29;20074;-86
2021/07/24 10:08:11;;;;;;;10.27;4.93;;;18.30;99.90;;;;;;4782958;29;20765;-85
2021/07/24 10:10:39;;;;;;;11.05;5.43;;;18.30;99.90;;;;;;4795819;29;20376;-86
2021/07/24 10:13:12;;;;;;;14.25;5.43;;;18.20;99.90;;;;;;4782582;29;20048;-85
2021/07/24 10:15:44;;;;;;;11.60;5.25;;;18.20;99.90;;;;;;4785930;29;20051;-86
2021/07/24 10:18:13;;;;;;;11.55;5.60;;;18.20;99.90;;;;;;4782634;29;20131;-85
2021/07/24 10:20:45;;;;;;;12.25;6.13;;;18.20;99.90;;;;;;4766409;29;20055;-87
2021/07/24 10:23:15;;;;;;;9.88;5.65;;;18.00;99.90;;;;;;4783535;29;20503;-87
2021/07/24 10:26:15;;;;;;;7.78;5.68;;;18.00;99.90;;;;;;4783636;29;20059;-86
2021/07/24 10:28:50;;;;;;;9.32;5.63;;;17.90;99.90;;;;;;4779789;29;20047;-85
2021/07/24 10:31:42;;;;;;;8.50;5.80;;;17.80;99.90;;;;;;4781391;29;20444;-87
2021/07/24 10:34:12;;;;;;;10.40;5.53;;;17.70;99.90;;;;;;4780813;29;20078;-86
2021/07/24 10:36:43;;;;;;;11.38;6.63;;;17.70;99.90;;;;;;4780663;29;20141;-86
2021/07/24 10:39:16;;;;;;;11.60;7.60;;;17.60;99.90;;;;;;4780482;29;20577;-86
2021/07/24 10:41:45;;;;;;;12.10;8.40;;;17.60;99.90;;;;;;4784472;29;20059;-85
2021/07/24 10:44:36;;;;;;;10.95;7.88;;;17.60;99.90;;;;;;4779313;29;20112;-85
2021/07/24 10:47:03;;;;;;;12.65;7.80;;;17.60;99.90;;;;;;4777881;29;20052;-85
2021/07/24 10:49:33;;;;;;;15.68;9.32;;;17.60;99.90;;;;;;4775745;29;20055;-85
2021/07/24 10:52:02;;;;;;;18.33;8.90;;;17.50;99.90;;;;;;4789257;29;20075;-86
2021/07/24 10:54:49;;;;;;;;;;;17.50;99.90;;;;;;4773984;29;20052;-85
2021/07/24 10:57:49;;;;;;;13.00;7.55;;;17.40;99.90;;;;;;4773801;29;20257;-86
2021/07/24 11:00:16;;;;;;;10.38;7.82;;;17.40;99.90;;;;;;4788378;29;20051;-85
2021/07/24 11:02:48;;;;;;;12.63;7.70;;;17.30;99.90;;;;;;4788208;29;20483;-85
2021/07/24 11:05:23;;;;;;;11.30;7.53;;;17.40;99.90;;;;;;4769594;29;20057;-85
2021/07/24 11:07:52;;;;;;;14.48;8.52;;;17.40;99.90;;;;;;4762853;29;20059;-85
2021/07/24 11:10:20;;;;;;;12.18;8.40;;;17.50;99.90;;;;;;4785744;29;20044;-85
2021/07/24 11:12:47;;;;;;;11.85;8.43;;;17.50;99.90;;;;;;4775238;29;20062;-86
2021/07/24 11:15:19;;;;;;;10.73;7.93;;;17.60;99.90;;;;;;4769547;29;20047;-85
2021/07/24 11:18:19;;;;;;;10.88;9.13;;;17.60;99.90;;;;;;4786057;29;20055;-85
2021/07/24 11:20:47;;;;;;;14.35;9.85;;;17.70;99.90;;;;;;4769924;29;20055;-85
2021/07/24 11:23:14;;;;;;;16.50;11.00;;;17.80;99.90;;;;;;4771612;29;20055;-86
2021/07/24 11:25:44;;;;;;;18.33;12.05;;;17.90;99.90;;;;;;4780939;29;20074;-85
2021/07/24 11:28:20;;;;;;;22.65;13.50;;;17.90;99.90;;;;;;4777667;29;20059;-85
2021/07/24 11:30:56;;;;;;;21.10;13.82;;;17.80;99.90;;;;;;4781287;29;20086;-87
2021/07/24 11:33:28;;;;;;;23.10;13.77;;;17.60;99.90;;;;;;4763816;29;20056;-88
2021/07/24 11:36:02;;;;;;;24.15;13.90;;;17.50;99.90;;;;;;4763621;29;20310;-88
2021/07/24 11:38:29;;;;;;;24.98;13.95;;;17.50;99.90;;;;;;4766411;29;20054;-88
2021/07/24 11:41:03;;;;;;;20.13;11.55;;;17.40;99.90;;;;;;4769819;29;20056;-89
2021/07/24 11:43:30;;;;;;;27.05;12.88;;;17.40;99.90;;;;;;4753184;30;20048;-90
2021/07/24 11:46:06;;;;;;;23.77;12.57;;;17.40;99.90;;;;;;4751438;30;20048;-90
2021/07/24 11:48:40;;;;;;;19.80;11.32;;;17.40;99.90;;;;;;4765545;29;20048;-89
2021/07/24 11:51:09;;;;;;;21.33;11.60;;;17.30;99.90;;;;;;4766090;29;20457;-89
2021/07/24 11:53:37;;;;;;;22.30;11.52;;;17.30;99.90;;;;;;4767841;29;20055;-88
2021/07/24 11:56:09;;;;;;;16.37;10.47;;;17.20;99.90;;;;;;4760021;29;20059;-89
2021/07/24 11:58:37;;;;;;;17.75;12.32;;;17.20;99.90;;;;;;4767666;29;20051;-89
2021/07/24 12:01:19;;;;;;;18.40;12.13;;;17.20;99.90;;;;;;4774782;29;20056;-88
2021/07/24 12:03:46;;;;;;;20.88;12.43;;;17.10;99.90;;;;;;4768483;29;20051;-89
2021/07/24 12:06:14;;;;;;;25.60;12.75;;;17.10;99.90;;;;;;4765843;29;20508;-89
2021/07/24 12:08:46;;;;;;;23.98;12.65;;;17.10;99.90;;;;;;4781834;29;20331;-89
2021/07/24 12:11:15;;;;;;;25.55;13.68;;;17.00;99.90;;;;;;4768237;29;20517;-88
2021/07/24 12:13:44;;;;;;;29.27;14.35;;;17.00;99.90;;;;;;4768729;29;20138;-87
2021/07/24 12:16:13;;;;;;;26.10;15.23;;;17.10;99.90;;;;;;4768806;29;20079;-89
2021/07/24 12:18:52;;;;;;;26.50;14.43;;;17.00;99.90;;;;;;4769167;29;20048;-90
2021/07/24 12:21:21;;;;;;;29.25;16.17;;;17.00;99.90;;;;;;4768439;29;20055;-89
2021/07/24 12:24:02;;;;;;;33.70;17.52;;;17.00;99.90;;;;;;4767574;29;20047;-89
2021/07/24 12:26:33;;;;;;;24.10;16.48;;;17.00;99.90;;;;;;4766743;29;20390;-89
2021/07/24 12:29:21;;;;;;;34.10;18.13;;;17.10;99.90;;;;;;4769113;29;20051;-89
2021/07/24 12:31:50;;;;;;;29.27;18.52;;;17.10;99.90;;;;;;4746975;29;20047;-89
2021/07/24 12:34:20;;;;;;;27.40;17.02;;;17.10;99.90;;;;;;4755656;29;20056;-89
2021/07/24 12:36:58;;;;;;;26.88;17.10;;;17.20;99.90;;;;;;4768500;29;20051;-90
2021/07/24 12:39:30;;;;;;;30.85;14.88;;;17.30;99.90;;;;;;4759926;29;20048;-89
2021/07/24 12:42:02;;;;;;;20.77;14.27;;;17.30;99.90;;;;;;4768815;29;20052;-89
2021/07/24 12:44:32;;;;;;;20.60;12.20;;;17.40;99.90;;;;;;4768335;29;20485;-89
2021/07/24 12:47:13;;;;;;;19.58;11.63;;;17.50;99.90;;;;;;4770598;29;20058;-89
2021/07/24 12:49:43;;;;;;;15.05;9.00;;;17.50;99.90;;;;;;4725025;30;20052;-90